Station Historical Data
Daily Summary for March 28, 2017 Units:  English    Metric   Both
« Previous Day
Next Day »
Daily Weekly Monthly Yearly Custom
  High: Low: Average:
Temperature: 47.8 °F 42.2 °F 45.3 °F
Dew Point: 46.2 °F 36.5 °F 41.5 °F
Humidity: 94% 78% 87%
Wind Speed: 9.0mph 0.0mph 2.2mph
Wind Gust: 10.0mph - -
Wind- - WSW
Pressure: 30.15 in 29.87 in -
Precipitation: 0.00 in    
Historical Graphs
 
 
Tabular Data for March 28, 2017
Time Temperature Dew Point Pressure Wind Wind Speed Wind Gust Humidity Rainfall Rate (Hourly)
00:04 46.4 °F 44.2 °F 29.91 in Calm     92% 0.00 in
00:09 46.3 °F 44.1 °F 29.91 in Calm     92% 0.00 in
00:14 46.1 °F 43.9 °F 29.91 in Calm     92% 0.00 in
00:19 45.9 °F 43.7 °F 29.91 in Calm     92% 0.00 in
00:24 45.8 °F 43.6 °F 29.91 in Calm     92% 0.00 in
00:29 45.7 °F 43.5 °F 29.91 in Calm     92% 0.00 in
00:34 45.7 °F 43.8 °F 29.91 in Calm     93% 0.00 in
00:39 45.6 °F 43.4 °F 29.91 in Calm     92% 0.00 in
00:44 45.4 °F 43.2 °F 29.91 in Calm     92% 0.00 in
00:49 45.3 °F 43.1 °F 29.91 in Calm     92% 0.00 in
00:54 45.1 °F 43.2 °F 29.91 in Calm     93% 0.00 in
00:59 45.1 °F 43.2 °F 29.91 in Calm     93% 0.00 in
01:04 45.1 °F 43.2 °F 29.91 in Calm     93% 0.00 in
01:09 45.4 °F 43.5 °F 29.91 in SW 1.0 mph 3.0 mph 93% 0.00 in
01:14 45.7 °F 43.8 °F 29.90 in SW 2.0 mph 3.0 mph 93% 0.00 in
01:19 45.7 °F 43.8 °F 29.90 in SW 1.0 mph 3.0 mph 93% 0.00 in
01:24 45.4 °F 43.2 °F 29.90 in Calm   2.0 mph 92% 0.00 in
01:29 45.1 °F 43.2 °F 29.90 in Calm     93% 0.00 in
01:34 45.0 °F 43.1 °F 29.90 in Calm     93% 0.00 in
01:39 45.3 °F 43.4 °F 29.91 in Calm     93% 0.00 in
01:44 45.8 °F 43.9 °F 29.90 in Calm     93% 0.00 in
01:49 46.0 °F 44.1 °F 29.90 in Calm     93% 0.00 in
01:54 46.1 °F 44.2 °F 29.91 in Calm     93% 0.00 in
01:59 46.0 °F 44.1 °F 29.91 in Calm     93% 0.00 in
02:04 45.9 °F 44.0 °F 29.90 in Calm     93% 0.00 in
02:09 45.7 °F 43.8 °F 29.90 in Calm     93% 0.00 in
02:14 45.5 °F 43.3 °F 29.89 in Calm     92% 0.00 in
02:19 45.3 °F 43.4 °F 29.89 in Calm     93% 0.00 in
02:24 45.0 °F 42.8 °F 29.89 in Calm     92% 0.00 in
02:29 44.6 °F 42.4 °F 29.89 in Calm     92% 0.00 in
02:34 44.3 °F 42.4 °F 29.89 in Calm     93% 0.00 in
02:39 44.2 °F 42.3 °F 29.89 in Calm     93% 0.00 in
02:44 44.3 °F 42.4 °F 29.89 in Calm     93% 0.00 in
02:49 44.3 °F 42.4 °F 29.88 in Calm     93% 0.00 in
02:54 44.0 °F 42.1 °F 29.88 in Calm     93% 0.00 in
02:59 44.1 °F 42.2 °F 29.88 in Calm     93% 0.00 in
03:04 44.2 °F 42.3 °F 29.88 in Calm     93% 0.00 in
03:09 44.4 °F 42.5 °F 29.88 in Calm     93% 0.00 in
03:14 44.4 °F 42.5 °F 29.88 in Calm     93% 0.00 in
03:19 44.7 °F 42.8 °F 29.88 in Calm     93% 0.00 in
03:24 44.7 °F 42.8 °F 29.88 in Calm     93% 0.00 in
03:29 44.7 °F 42.8 °F 29.88 in Calm     93% 0.00 in
03:34 44.7 °F 42.8 °F 29.88 in Calm     93% 0.00 in
03:39 44.4 °F 42.5 °F 29.88 in Calm     93% 0.00 in
03:44 44.2 °F 42.3 °F 29.88 in Calm     93% 0.00 in
03:49 43.8 °F 41.9 °F 29.89 in Calm     93% 0.00 in
03:54 43.6 °F 41.7 °F 29.88 in Calm     93% 0.00 in
03:59 43.4 °F 41.5 °F 29.88 in Calm     93% 0.00 in
04:04 43.1 °F 41.2 °F 29.88 in Calm     93% 0.00 in
04:09 43.0 °F 41.4 °F 29.88 in Calm     94% 0.00 in
04:14 43.1 °F 41.5 °F 29.88 in Calm     94% 0.00 in
04:19 43.3 °F 41.7 °F 29.88 in Calm     94% 0.00 in
04:24 43.4 °F 41.8 °F 29.87 in Calm     94% 0.00 in
04:29 43.7 °F 42.1 °F 29.87 in Calm     94% 0.00 in
04:34 43.6 °F 42.0 °F 29.88 in Calm     94% 0.00 in
04:39 43.7 °F 42.1 °F 29.88 in Calm     94% 0.00 in
04:44 43.7 °F 42.1 °F 29.88 in Calm     94% 0.00 in
04:49 43.8 °F 42.2 °F 29.88 in Calm     94% 0.00 in
04:54 44.1 °F 42.5 °F 29.88 in Calm     94% 0.00 in
04:59 44.4 °F 42.8 °F 29.87 in Calm     94% 0.00 in
05:04 44.8 °F 43.2 °F 29.87 in Calm     94% 0.00 in
05:09 45.1 °F 43.5 °F 29.88 in Calm     94% 0.00 in
05:14 45.2 °F 43.6 °F 29.88 in NW 2.0 mph 2.0 mph 94% 0.00 in
05:19 45.2 °F 43.6 °F 29.88 in Calm   3.0 mph 94% 0.00 in
05:24 45.3 °F 43.7 °F 29.88 in Calm     94% 0.00 in
05:29 45.3 °F 43.7 °F 29.88 in Calm     94% 0.00 in
05:34 45.3 °F 43.7 °F 29.88 in Calm     94% 0.00 in
05:39 45.3 °F 43.7 °F 29.88 in Calm     94% 0.00 in
05:44 45.4 °F 43.8 °F 29.88 in Calm     94% 0.00 in
05:49 45.4 °F 43.8 °F 29.89 in Calm     94% 0.00 in
05:54 45.4 °F 43.8 °F 29.89 in Calm     94% 0.00 in
05:59 45.5 °F 43.9 °F 29.88 in Calm     94% 0.00 in
06:04 45.9 °F 44.3 °F 29.88 in Calm     94% 0.00 in
06:09 46.2 °F 44.6 °F 29.88 in Calm     94% 0.00 in
06:14 46.4 °F 44.8 °F 29.88 in Calm     94% 0.00 in
06:19 46.3 °F 44.7 °F 29.89 in Calm     94% 0.00 in
06:24 46.3 °F 44.7 °F 29.89 in Calm     94% 0.00 in
06:29 46.4 °F 44.8 °F 29.89 in Calm     94% 0.00 in
06:34 46.5 °F 44.9 °F 29.89 in Calm     94% 0.00 in
06:39 46.5 °F 44.9 °F 29.89 in Calm     94% 0.00 in
06:44 46.6 °F 45.0 °F 29.89 in Calm     94% 0.00 in
06:49 46.5 °F 44.9 °F 29.90 in Calm     94% 0.00 in
06:54 46.4 °F 44.8 °F 29.90 in Calm     94% 0.00 in
06:59 46.5 °F 44.9 °F 29.90 in Calm     94% 0.00 in
07:04 46.7 °F 45.1 °F 29.91 in Calm     94% 0.00 in
07:09 46.7 °F 45.1 °F 29.91 in Calm     94% 0.00 in
07:14 46.7 °F 45.1 °F 29.91 in Calm     94% 0.00 in
07:19 46.6 °F 44.7 °F 29.91 in Calm     93% 0.00 in
07:24 46.6 °F 44.7 °F 29.92 in Calm     93% 0.00 in
07:29 46.5 °F 44.6 °F 29.92 in Calm     93% 0.00 in
07:34 46.7 °F 45.1 °F 29.92 in Calm     94% 0.00 in
07:39 46.8 °F 45.2 °F 29.92 in Calm     94% 0.00 in
07:44 47.1 °F 45.5 °F 29.92 in Calm     94% 0.00 in
07:49 47.5 °F 45.9 °F 29.92 in Calm   5.0 mph 94% 0.00 in
07:54 47.7 °F 46.1 °F 29.92 in North 1.0 mph 5.0 mph 94% 0.00 in
07:59 47.8 °F 46.2 °F 29.93 in North 2.0 mph 4.0 mph 94% 0.00 in
08:04 47.8 °F 45.9 °F 29.92 in North 4.0 mph 7.0 mph 93% 0.00 in
08:09 47.8 °F 46.2 °F 29.93 in Calm   4.0 mph 94% 0.00 in
08:14 47.8 °F 45.9 °F 29.93 in NNW 2.0 mph 6.0 mph 93% 0.00 in
08:19 47.7 °F 45.8 °F 29.93 in North 2.0 mph 6.0 mph 93% 0.00 in
08:24 47.6 °F 46.0 °F 29.93 in North 3.0 mph 4.0 mph 94% 0.00 in
08:29 47.2 °F 45.3 °F 29.93 in NNW 3.0 mph 6.0 mph 93% 0.00 in
08:34 46.8 °F 44.9 °F 29.93 in North 1.0 mph 8.0 mph 93% 0.00 in
08:39 46.8 °F 45.2 °F 29.93 in North 4.0 mph 6.0 mph 94% 0.00 in
08:44 46.7 °F 44.8 °F 29.93 in North 2.0 mph 6.0 mph 93% 0.00 in
08:49 46.5 °F 44.6 °F 29.93 in North 3.0 mph 6.0 mph 93% 0.00 in
08:54 46.5 °F 44.6 °F 29.94 in North 3.0 mph 5.0 mph 93% 0.00 in
08:59 46.5 °F 44.6 °F 29.94 in NNE 3.0 mph 5.0 mph 93% 0.00 in
09:04 46.5 °F 44.6 °F 29.94 in NNW 1.0 mph 4.0 mph 93% 0.00 in
09:09 46.6 °F 44.7 °F 29.94 in NNE 2.0 mph 4.0 mph 93% 0.00 in
09:14 46.6 °F 44.7 °F 29.94 in North 3.0 mph 6.0 mph 93% 0.00 in
09:19 46.7 °F 44.8 °F 29.94 in North 3.0 mph 6.0 mph 93% 0.00 in
09:24 46.8 °F 44.6 °F 29.94 in North 2.0 mph 5.0 mph 92% 0.00 in
09:29 46.7 °F 44.5 °F 29.94 in NNE 2.0 mph 5.0 mph 92% 0.00 in
09:34 46.9 °F 44.7 °F 29.94 in North 2.0 mph 4.0 mph 92% 0.00 in
09:39 46.8 °F 44.3 °F 29.94 in NNE 4.0 mph 6.0 mph 91% 0.00 in
09:44 46.8 °F 44.3 °F 29.94 in NNW 3.0 mph 5.0 mph 91% 0.00 in
09:49 46.8 °F 44.3 °F 29.94 in North 3.0 mph 6.0 mph 91% 0.00 in
09:54 46.7 °F 43.9 °F 29.94 in North 3.0 mph 7.0 mph 90% 0.00 in
09:59 46.9 °F 44.1 °F 29.95 in North 3.0 mph 7.0 mph 90% 0.00 in
10:04 46.6 °F 43.5 °F 29.95 in North 3.0 mph 10.0 mph 89% 0.00 in
10:09 46.3 °F 43.2 °F 29.95 in North 4.0 mph 7.0 mph 89% 0.00 in
10:14 46.1 °F 43.0 °F 29.95 in NNE 5.0 mph 8.0 mph 89% 0.00 in
10:19 45.9 °F 42.8 °F 29.95 in North 2.0 mph 7.0 mph 89% 0.00 in
10:24 45.8 °F 42.7 °F 29.95 in NNW 3.0 mph 6.0 mph 89% 0.00 in
10:29 45.6 °F 42.5 °F 29.96 in NNE 4.0 mph 8.0 mph 89% 0.00 in
10:34 45.4 °F 42.3 °F 29.96 in North 2.0 mph 6.0 mph 89% 0.00 in
10:39 45.5 °F 42.2 °F 29.96 in North 2.0 mph 5.0 mph 88% 0.00 in
10:44 45.6 °F 42.3 °F 29.96 in North 1.0 mph 4.0 mph 88% 0.00 in
10:49 45.7 °F 42.1 °F 29.96 in North 3.0 mph 6.0 mph 87% 0.00 in
10:54 45.9 °F 41.9 °F 29.97 in North 3.0 mph 6.0 mph 86% 0.00 in
10:59 46.0 °F 41.7 °F 29.97 in North 4.0 mph 8.0 mph 85% 0.00 in
11:04 46.1 °F 41.5 °F 29.97 in North 4.0 mph 7.0 mph 84% 0.00 in
11:09 46.0 °F 41.4 °F 29.97 in NNW 3.0 mph 7.0 mph 84% 0.00 in
11:14 45.9 °F 41.3 °F 29.97 in North 5.0 mph 10.0 mph 84% 0.00 in
11:19 45.8 °F 41.2 °F 29.97 in NNW 4.0 mph 10.0 mph 84% 0.00 in
11:24 45.9 °F 41.0 °F 29.97 in North 4.0 mph 8.0 mph 83% 0.00 in
11:29 45.9 °F 41.3 °F 29.97 in North 3.0 mph 6.0 mph 84% 0.00 in
11:34 46.1 °F 41.5 °F 29.97 in NNW 7.0 mph 7.0 mph 84% 0.00 in
11:39 45.9 °F 41.0 °F 29.97 in North 3.0 mph 8.0 mph 83% 0.00 in
11:44 45.6 °F 40.7 °F 29.97 in NNW 2.0 mph 9.0 mph 83% 0.00 in
11:49 45.5 °F 40.6 °F 29.97 in North 4.0 mph 9.0 mph 83% 0.00 in
11:54 45.6 °F 40.7 °F 29.97 in North 4.0 mph 8.0 mph 83% 0.00 in
11:59 45.6 °F 40.7 °F 29.97 in North 4.0 mph 8.0 mph 83% 0.00 in
12:04 45.2 °F 40.3 °F 29.97 in North 2.0 mph 7.0 mph 83% 0.00 in
12:09 45.3 °F 40.4 °F 29.97 in NNW 9.0 mph 9.0 mph 83% 0.00 in
12:14 45.2 °F 40.3 °F 29.97 in NNW 1.0 mph 9.0 mph 83% 0.00 in
12:19 44.7 °F 39.5 °F 29.97 in North 4.0 mph 9.0 mph 82% 0.00 in
12:24 44.4 °F 39.6 °F 29.97 in NNW 4.0 mph 8.0 mph 83% 0.00 in
12:29 44.2 °F 39.4 °F 29.97 in NNW 5.0 mph 9.0 mph 83% 0.00 in
12:34 44.5 °F 39.7 °F 29.97 in NNW 2.0 mph 6.0 mph 83% 0.00 in
12:39 44.9 °F 40.4 °F 29.97 in NNE 3.0 mph 7.0 mph 84% 0.00 in
12:44 45.1 °F 39.9 °F 29.97 in North 4.0 mph 7.0 mph 82% 0.00 in
12:49 45.2 °F 40.0 °F 29.97 in North 7.0 mph 10.0 mph 82% 0.00 in
12:54 45.4 °F 40.2 °F 29.97 in North 4.0 mph 10.0 mph 82% 0.00 in
12:59 45.5 °F 40.0 °F 29.97 in North 4.0 mph 8.0 mph 81% 0.00 in
13:04 45.7 °F 40.5 °F 29.97 in North 3.0 mph 7.0 mph 82% 0.00 in
13:09 45.6 °F 40.1 °F 29.97 in North 3.0 mph 8.0 mph 81% 0.00 in
13:14 45.7 °F 40.2 °F 29.97 in NNW 3.0 mph 8.0 mph 81% 0.00 in
13:19 45.6 °F 40.1 °F 29.97 in NE 3.0 mph 8.0 mph 81% 0.00 in
13:24 45.8 °F 40.3 °F 29.97 in North 4.0 mph 8.0 mph 81% 0.00 in
13:29 45.8 °F 40.0 °F 29.97 in North 4.0 mph 9.0 mph 80% 0.00 in
13:34 45.6 °F 39.8 °F 29.97 in North 5.0 mph 9.0 mph 80% 0.00 in
13:39 45.8 °F 40.3 °F 29.97 in North 5.0 mph 6.0 mph 81% 0.00 in
13:44 45.8 °F 40.3 °F 29.97 in North 1.0 mph 6.0 mph 81% 0.00 in
13:49 45.6 °F 39.8 °F 29.97 in NE 3.0 mph 8.0 mph 80% 0.00 in
13:54 45.5 °F 39.7 °F 29.97 in North 4.0 mph 8.0 mph 80% 0.00 in
13:59 45.7 °F 40.2 °F 29.98 in North 4.0 mph 9.0 mph 81% 0.00 in
14:04 45.7 °F 39.9 °F 29.98 in NNW 2.0 mph 9.0 mph 80% 0.00 in
14:09 45.6 °F 40.1 °F 29.98 in NW 2.0 mph 9.0 mph 81% 0.00 in
14:14 45.6 °F 40.1 °F 29.98 in NNE 4.0 mph 8.0 mph 81% 0.00 in
14:19 45.7 °F 40.2 °F 29.98 in NNW 2.0 mph 6.0 mph 81% 0.00 in
14:24 46.0 °F 40.2 °F 29.98 in North 6.0 mph 7.0 mph 80% 0.00 in
14:29 45.7 °F 39.9 °F 29.98 in North 3.0 mph 7.0 mph 80% 0.00 in
14:34 45.7 °F 39.9 °F 29.98 in North 4.0 mph 7.0 mph 80% 0.00 in
14:39 45.8 °F 40.3 °F 29.98 in North 3.0 mph 9.0 mph 81% 0.00 in
14:44 45.9 °F 40.1 °F 29.98 in North 4.0 mph 5.0 mph 80% 0.00 in
14:49 46.0 °F 40.2 °F 29.98 in North 2.0 mph 5.0 mph 80% 0.00 in
14:54 45.9 °F 40.1 °F 29.98 in North 3.0 mph 5.0 mph 80% 0.00 in
14:59 46.3 °F 40.8 °F 29.98 in North 2.0 mph 5.0 mph 81% 0.00 in
15:04 46.1 °F 40.3 °F 29.99 in NNW 3.0 mph 6.0 mph 80% 0.00 in
15:09 46.1 °F 40.3 °F 29.99 in NNW 3.0 mph 7.0 mph 80% 0.00 in
15:14 46.5 °F 40.7 °F 29.99 in North 2.0 mph 5.0 mph 80% 0.00 in
15:19 46.7 °F 40.5 °F 29.99 in North 2.0 mph 8.0 mph 79% 0.00 in
15:24 46.9 °F 41.1 °F 29.99 in NW 2.0 mph 5.0 mph 80% 0.00 in
15:29 46.9 °F 40.7 °F 29.99 in NNW 3.0 mph 7.0 mph 79% 0.00 in
15:34 46.9 °F 40.7 °F 29.99 in North 4.0 mph 7.0 mph 79% 0.00 in
15:39 47.2 °F 41.0 °F 29.99 in North 3.0 mph 7.0 mph 79% 0.00 in
15:44 47.4 °F 41.2 °F 29.99 in North 3.0 mph 7.0 mph 79% 0.00 in
15:49 47.5 °F 41.0 °F 29.99 in NNW 3.0 mph 7.0 mph 78% 0.00 in
15:54 47.3 °F 41.1 °F 29.99 in NNW 3.0 mph 7.0 mph 79% 0.00 in
15:59 47.0 °F 40.8 °F 29.99 in NNW 2.0 mph 6.0 mph 79% 0.00 in
16:04 46.9 °F 40.7 °F 30.00 in North 3.0 mph 7.0 mph 79% 0.00 in
16:09 46.4 °F 40.2 °F 30.00 in North 7.0 mph 8.0 mph 79% 0.00 in
16:14 46.4 °F 40.6 °F 30.00 in North 4.0 mph 10.0 mph 80% 0.00 in
16:19 46.0 °F 40.2 °F 30.00 in North 5.0 mph 9.0 mph 80% 0.00 in
16:24 46.2 °F 40.7 °F 30.00 in NW 2.0 mph 8.0 mph 81% 0.00 in
16:29 46.2 °F 40.4 °F 30.00 in North 4.0 mph 9.0 mph 80% 0.00 in
16:34 46.0 °F 40.2 °F 30.01 in North 1.0 mph 8.0 mph 80% 0.00 in
16:39 46.0 °F 40.2 °F 30.01 in North 4.0 mph 8.0 mph 80% 0.00 in
16:44 46.2 °F 40.4 °F 30.01 in NNW 4.0 mph 7.0 mph 80% 0.00 in
16:49 46.3 °F 40.5 °F 30.01 in North 3.0 mph 7.0 mph 80% 0.00 in
16:54 46.6 °F 40.8 °F 30.01 in North 3.0 mph 9.0 mph 80% 0.00 in
16:59 46.7 °F 40.9 °F 30.01 in North 3.0 mph 9.0 mph 80% 0.00 in
17:04 46.8 °F 41.0 °F 30.02 in NE 5.0 mph 8.0 mph 80% 0.00 in
17:09 46.8 °F 41.0 °F 30.02 in North 2.0 mph 8.0 mph 80% 0.00 in
17:14 46.8 °F 41.0 °F 30.02 in NNE 3.0 mph 6.0 mph 80% 0.00 in
17:19 46.8 °F 41.0 °F 30.02 in NNE 2.0 mph 7.0 mph 80% 0.00 in
17:24 46.7 °F 41.2 °F 30.03 in North 5.0 mph 6.0 mph 81% 0.00 in
17:29 46.6 °F 41.1 °F 30.03 in NNE 5.0 mph 8.0 mph 81% 0.00 in
17:34 46.5 °F 41.0 °F 30.03 in NNW 2.0 mph 7.0 mph 81% 0.00 in
17:39 46.5 °F 41.0 °F 30.03 in North 5.0 mph 6.0 mph 81% 0.00 in
17:44 46.4 °F 40.9 °F 30.03 in North 3.0 mph 6.0 mph 81% 0.00 in
17:49 46.3 °F 40.8 °F 30.03 in North 3.0 mph 6.0 mph 81% 0.00 in
17:54 46.3 °F 40.8 °F 30.03 in North 4.0 mph 8.0 mph 81% 0.00 in
17:59 46.3 °F 40.8 °F 30.03 in North 3.0 mph 8.0 mph 81% 0.00 in
18:04 46.3 °F 40.8 °F 30.03 in North 3.0 mph 6.0 mph 81% 0.00 in
18:09 46.1 °F 40.6 °F 30.04 in North 3.0 mph 6.0 mph 81% 0.00 in
18:14 46.2 °F 40.7 °F 30.04 in North 3.0 mph 6.0 mph 81% 0.00 in
18:19 46.2 °F 40.7 °F 30.04 in NNE 4.0 mph 6.0 mph 81% 0.00 in
18:24 46.0 °F 40.8 °F 30.05 in NNW 4.0 mph 7.0 mph 82% 0.00 in
18:29 45.9 °F 40.7 °F 30.05 in North 5.0 mph 9.0 mph 82% 0.00 in
18:34 45.8 °F 40.6 °F 30.05 in North 5.0 mph 8.0 mph 82% 0.00 in
18:39 45.8 °F 40.6 °F 30.06 in NNW 3.0 mph 6.0 mph 82% 0.00 in
18:44 45.8 °F 40.6 °F 30.06 in North 4.0 mph 8.0 mph 82% 0.00 in
18:49 45.7 °F 40.5 °F 30.06 in North 4.0 mph 9.0 mph 82% 0.00 in
18:54 45.7 °F 40.5 °F 30.06 in North 4.0 mph 10.0 mph 82% 0.00 in
18:59 45.7 °F 40.5 °F 30.07 in North 3.0 mph 10.0 mph 82% 0.00 in
19:04 45.5 °F 40.0 °F 30.07 in North 3.0 mph 7.0 mph 81% 0.00 in
19:09 45.4 °F 40.2 °F 30.07 in NNW 4.0 mph 7.0 mph 82% 0.00 in
19:14 45.3 °F 40.1 °F 30.07 in NNW 2.0 mph 6.0 mph 82% 0.00 in
19:19 45.2 °F 40.0 °F 30.08 in NNE 4.0 mph 8.0 mph 82% 0.00 in
19:24 45.1 °F 39.9 °F 30.08 in NNE 4.0 mph 9.0 mph 82% 0.00 in
19:29 44.8 °F 40.0 °F 30.08 in NNE 4.0 mph 7.0 mph 83% 0.00 in
19:34 44.5 °F 40.0 °F 30.08 in North 4.0 mph 7.0 mph 84% 0.00 in
19:39 44.4 °F 39.9 °F 30.08 in North 2.0 mph 10.0 mph 84% 0.00 in
19:44 44.3 °F 40.1 °F 30.08 in North 3.0 mph 9.0 mph 85% 0.00 in
19:49 44.2 °F 40.0 °F 30.09 in North 4.0 mph 9.0 mph 85% 0.00 in
19:54 44.1 °F 39.9 °F 30.09 in North 3.0 mph 9.0 mph 85% 0.00 in
19:59 44.1 °F 39.9 °F 30.09 in North 3.0 mph 8.0 mph 85% 0.00 in
20:04 44.1 °F 39.6 °F 30.09 in North 4.0 mph 9.0 mph 84% 0.00 in
20:09 44.0 °F 39.5 °F 30.10 in North 2.0 mph 9.0 mph 84% 0.00 in
20:14 44.0 °F 39.2 °F 30.10 in NNW 3.0 mph 6.0 mph 83% 0.00 in
20:19 43.9 °F 39.1 °F 30.10 in NNE 6.0 mph 7.0 mph 83% 0.00 in
20:24 43.8 °F 39.0 °F 30.10 in NNW 4.0 mph 7.0 mph 83% 0.00 in
20:29 43.8 °F 39.0 °F 30.11 in North 4.0 mph 8.0 mph 83% 0.00 in
20:34 43.7 °F 38.6 °F 30.11 in NNE 3.0 mph 7.0 mph 82% 0.00 in
20:39 43.7 °F 38.6 °F 30.11 in North 1.0 mph 8.0 mph 82% 0.00 in
20:44 43.7 °F 38.6 °F 30.12 in North 4.0 mph 6.0 mph 82% 0.00 in
20:49 43.7 °F 38.6 °F 30.12 in North 3.0 mph 8.0 mph 82% 0.00 in
20:54 43.6 °F 38.5 °F 30.12 in North 3.0 mph 8.0 mph 82% 0.00 in
20:59 43.7 °F 38.6 °F 30.12 in North 2.0 mph 5.0 mph 82% 0.00 in
21:04 43.6 °F 38.5 °F 30.12 in NNW 2.0 mph 4.0 mph 82% 0.00 in
21:09 43.5 °F 38.4 °F 30.12 in NW 3.0 mph 5.0 mph 82% 0.00 in
21:14 43.5 °F 38.4 °F 30.12 in NW 3.0 mph 8.0 mph 82% 0.00 in
21:19 43.4 °F 38.0 °F 30.13 in NNW 3.0 mph 8.0 mph 81% 0.00 in
21:24 43.4 °F 38.0 °F 30.13 in NNW 5.0 mph 5.0 mph 81% 0.00 in
21:29 43.4 °F 38.0 °F 30.13 in NW 3.0 mph 6.0 mph 81% 0.00 in
21:34 43.3 °F 37.9 °F 30.13 in North 4.0 mph 7.0 mph 81% 0.00 in
21:39 43.2 °F 37.8 °F 30.13 in NNW 7.0 mph 7.0 mph 81% 0.00 in
21:44 43.2 °F 37.8 °F 30.14 in NNW 5.0 mph 8.0 mph 81% 0.00 in
21:49 43.1 °F 37.7 °F 30.14 in North 4.0 mph 8.0 mph 81% 0.00 in
21:54 43.1 °F 37.7 °F 30.14 in North 3.0 mph 5.0 mph 81% 0.00 in
21:59 43.0 °F 37.6 °F 30.14 in North 3.0 mph 5.0 mph 81% 0.00 in
22:04 42.9 °F 37.5 °F 30.14 in NNW 3.0 mph 7.0 mph 81% 0.00 in
22:09 42.8 °F 37.4 °F 30.15 in NW 2.0 mph 9.0 mph 81% 0.00 in
22:14 42.8 °F 37.4 °F 30.15 in NNW 3.0 mph 5.0 mph 81% 0.00 in
22:19 42.7 °F 37.3 °F 30.15 in NNW 3.0 mph 8.0 mph 81% 0.00 in
22:24 42.7 °F 37.3 °F 30.15 in NNW 3.0 mph 8.0 mph 81% 0.00 in
22:29 42.7 °F 37.3 °F 30.15 in NNW 2.0 mph 5.0 mph 81% 0.00 in
22:34 42.6 °F 37.2 °F 30.15 in NW 2.0 mph 6.0 mph 81% 0.00 in
22:39 42.5 °F 37.1 °F 30.15 in NNW 4.0 mph 7.0 mph 81% 0.00 in
22:44 42.5 °F 37.1 °F 30.15 in NNW 3.0 mph 5.0 mph 81% 0.00 in
22:49 42.5 °F 37.1 °F 30.15 in NNW 2.0 mph 6.0 mph 81% 0.00 in
22:54 42.4 °F 37.0 °F 30.15 in NNW 3.0 mph 7.0 mph 81% 0.00 in
22:59 42.4 °F 37.0 °F 30.15 in North 2.0 mph 8.0 mph 81% 0.00 in
23:04 42.4 °F 37.0 °F 30.15 in North 3.0 mph 5.0 mph 81% 0.00 in
23:09 42.4 °F 37.0 °F 30.15 in NNW 2.0 mph 5.0 mph 81% 0.00 in
23:14 42.3 °F 36.9 °F 30.15 in NW 1.0 mph 3.0 mph 81% 0.00 in
23:19 42.4 °F 37.0 °F 30.15 in NNW 1.0 mph 3.0 mph 81% 0.00 in
23:24 42.3 °F 36.9 °F 30.15 in NNW 2.0 mph 5.0 mph 81% 0.00 in
23:29 42.3 °F 36.9 °F 30.15 in NNW 2.0 mph 5.0 mph 81% 0.00 in
23:34 42.3 °F 36.9 °F 30.15 in NNW 2.0 mph 5.0 mph 81% 0.00 in
23:39 42.3 °F 36.9 °F 30.15 in NNW 3.0 mph 5.0 mph 81% 0.00 in
23:44 42.3 °F 36.9 °F 30.15 in NNW 3.0 mph 7.0 mph 81% 0.00 in
23:49 42.3 °F 36.6 °F 30.15 in NNW 3.0 mph 7.0 mph 80% 0.00 in
23:54 42.3 °F 36.6 °F 30.15 in NNW 3.0 mph 4.0 mph 80% 0.00 in
23:59 42.2 °F 36.5 °F 30.15 in NNW 3.0 mph 7.0 mph 80% 0.00 in
Buffalo, New York, USA
Compliments of Weather Underground - 2.5 mb